Burtonville, Kentucky
Current Conditions -  °F | °C
As of 5:55 PM on Tuesday 21 Oct 2014 (Local Time) from KFGX Reporting Station
Overcast Overcast  
Wind Chill: 11°   Ceiling: 5000
Heat Index: 11°   Visibility: 10mi
Dew Point:   Wind: 7mph
Humidity: 68%   Direction: 320°NW
Pressure: 30.09"   Gusts: NA
Location:  38.5845°N, 83.5468°W
Report Text: KFGX 212155Z AUTO 32006KT 10SM OVC050 11/05 A3009 RMK AO2 T01050049
Loading
Personal Weather Stations






























Interactive Weather Map
Tropical Storm Tracking
New forecast layout! Learn more

10-Day Weather Forecast

Advertisements
Track Severe Weather on mobile